Terminal Aerodrome Forecast
Issued by NWS

Home | Current Version | Previous Version | Text Only | Print | Product List | Glossary On
Versions: 1 2 3 4 5 6 7 8 9 10 11 12 13 14 15 16 17
000
FTUS42 KFFC 282300
TAFRYY
TAF
KRYY 282320Z 2900/2924 32009G15KT P6SM FEW070
     FM290300 32006KT P6SM SKC
     FM291600 34010G18KT P6SM SCT050
      AMD NOT SKED 2904/2912=

USA.gov is the U.S. government's official web portal to all federal, state and local government web resources and services.